Coldwater, Missouri
Current Conditions -  °F | °C
As of 2:53 AM on Sunday 23 Nov 2014 (Local Time) from KPOF Reporting Station
Clear Clear  
Wind Chill: 52°   Ceiling: Unl
Heat Index: 52°   Visibility: 10mi
Dew Point: 45°   Wind: 9mph
Humidity: 77%   Direction: 150°SSE
Pressure: 29.81"   Gusts: NA
Location:  37.2405°N, 90.4398°W
Report Text: KPOF 230853Z AUTO 15008KT 10SM CLR 11/07 A2981 RMK AO2 SLP095 T01110072 58030
Loading
Personal Weather Stations






























Interactive Weather Map New forecast layout! Learn more

10-Day Weather Forecast

Advertisements
Track Severe Weather on mobile